Terminal Aerodrome Forecast
Issued by NWS Bismarck, ND

Home | Current Version | Previous Version | Graphics & Text | Print | Product List | Glossary On
Versions: 1 2 3 4 5 6 7 8 9 10 11 12 13 14 15 16 17 18 19
000
FTUS43 KBIS 252300
TAFBIS
TAF
KBIS 252320Z 2600/2624 02018G27KT 5SM -SN BR OVC020
      TEMPO 2600/2602 2SM -SN BKN012
     FM260200 01019G28KT 6SM -SN OVC025
     FM260400 36019G27KT P6SM OVC025
     FM261200 35012KT P6SM BKN027=

USA.gov is the U.S. government's official web portal to all federal, state and local government web resources and services.